createdAt,value
2023-05-18T00:00:06.909Z,11.70
2023-05-18T00:02:34.343Z,6.60
2023-05-18T00:05:02.437Z,7.80
2023-05-18T00:07:34.402Z,9.10
2023-05-18T00:10:01.990Z,9.00
2023-05-18T00:12:29.202Z,10.90
2023-05-18T00:14:56.240Z,13.20
2023-05-18T00:17:23.815Z,14.30
2023-05-18T00:19:50.949Z,10.60
2023-05-18T00:22:20.862Z,8.20
2023-05-18T00:24:48.224Z,11.10
2023-05-18T00:27:15.467Z,5.70
2023-05-18T00:29:42.537Z,6.40
2023-05-18T00:32:09.682Z,7.10
2023-05-18T00:34:37.464Z,7.20
2023-05-18T00:37:04.781Z,7.30
2023-05-18T00:39:31.833Z,6.40
2023-05-18T00:41:58.890Z,7.00
2023-05-18T00:44:26.141Z,47.80
2023-05-18T00:46:53.196Z,7.20
2023-05-18T00:49:20.324Z,6.50
2023-05-18T00:51:47.420Z,7.60
2023-05-18T00:54:14.328Z,11.40
2023-05-18T00:56:46.888Z,7.80
2023-05-18T00:59:14.042Z,10.90
2023-05-18T01:01:43.999Z,10.20
2023-05-18T01:04:14.581Z,5.40
2023-05-18T01:06:42.449Z,9.20
2023-05-18T01:09:11.891Z,6.10
2023-05-18T01:12:00.405Z,10.00
2023-05-18T01:14:50.077Z,4.50
2023-05-18T01:17:33.729Z,9.80
2023-05-18T01:20:21.698Z,9.30
2023-05-18T01:22:50.916Z,15.60
2023-05-18T01:25:42.985Z,5.70
2023-05-18T01:28:16.428Z,14.00
2023-05-18T01:30:43.846Z,9.60
2023-05-18T01:33:11.780Z,12.20
2023-05-18T01:35:42.026Z,12.10
2023-05-18T01:38:09.076Z,19.10
2023-05-18T01:40:41.334Z,5.90
2023-05-18T01:43:11.893Z,7.90
2023-05-18T01:45:40.555Z,10.80
2023-05-18T01:48:07.805Z,8.90
2023-05-18T01:50:39.886Z,7.10
2023-05-18T01:53:15.312Z,12.50
2023-05-18T01:55:42.361Z,6.40
2023-05-18T01:58:09.466Z,11.00
2023-05-18T02:00:36.859Z,8.40
2023-05-18T02:03:05.410Z,4.50
2023-05-18T02:05:32.908Z,4.40
2023-05-18T02:08:00.091Z,7.50
2023-05-18T02:10:27.611Z,7.30
2023-05-18T02:12:54.783Z,9.60
2023-05-18T02:15:22.515Z,9.90
2023-05-18T02:17:50.221Z,5.40
2023-05-18T02:20:18.626Z,12.30
2023-05-18T02:22:46.472Z,9.60
2023-05-18T02:25:13.568Z,12.50
2023-05-18T02:27:40.654Z,13.70
2023-05-18T02:30:09.111Z,9.80
2023-05-18T02:32:39.263Z,10.40
2023-05-18T02:35:07.387Z,12.30
2023-05-18T02:37:40.190Z,7.90
2023-05-18T02:40:10.894Z,8.00
2023-05-18T02:42:37.961Z,7.40
2023-05-18T02:45:05.610Z,6.60
2023-05-18T02:47:33.137Z,8.70
2023-05-18T02:50:00.340Z,7.40
2023-05-18T02:52:28.086Z,10.30
2023-05-18T02:54:56.487Z,5.80
2023-05-18T02:57:47.167Z,11.50
2023-05-18T03:00:17.848Z,11.20
2023-05-18T03:02:48.725Z,6.30
2023-05-18T03:05:17.109Z,6.50
2023-05-18T03:07:51.103Z,6.70
2023-05-18T03:10:20.114Z,8.60
2023-05-18T03:12:48.182Z,4.60
2023-05-18T03:15:16.870Z,6.80
2023-05-18T03:17:44.473Z,6.60
2023-05-18T03:20:14.805Z,10.00
2023-05-18T03:22:42.020Z,9.50
2023-05-18T03:25:09.155Z,9.60
2023-05-18T03:27:38.138Z,5.40
2023-05-18T03:30:06.160Z,5.10
2023-05-18T03:32:34.292Z,11.00
2023-05-18T03:35:02.151Z,6.90
2023-05-18T03:37:29.555Z,20.40
2023-05-18T03:40:01.077Z,7.60
2023-05-18T03:42:28.314Z,5.20
2023-05-18T03:44:56.790Z,6.30
2023-05-18T03:47:24.960Z,13.60
2023-05-18T03:49:52.009Z,12.90
2023-05-18T03:52:22.764Z,6.10
2023-05-18T03:54:50.232Z,6.70
2023-05-18T03:57:17.555Z,12.00
2023-05-18T03:59:45.746Z,10.60
2023-05-18T04:02:13.486Z,9.50
2023-05-18T04:04:42.276Z,14.00
2023-05-18T04:07:09.427Z,9.00
2023-05-18T04:09:36.610Z,9.70
2023-05-18T04:12:04.832Z,5.00
2023-05-18T04:14:35.319Z,9.00
2023-05-18T04:17:06.633Z,8.10
2023-05-18T04:19:34.479Z,6.90
2023-05-18T04:22:05.040Z,7.70
2023-05-18T04:24:33.086Z,5.40
2023-05-18T04:27:01.876Z,14.20
2023-05-18T04:29:29.600Z,12.10
2023-05-18T04:32:03.392Z,11.30
2023-05-18T04:34:31.529Z,5.70
2023-05-18T04:36:59.091Z,5.50
2023-05-18T04:39:27.654Z,11.40
2023-05-18T04:42:01.259Z,8.00
2023-05-18T04:44:29.035Z,12.10
2023-05-18T04:46:59.442Z,11.50
2023-05-18T04:49:28.410Z,10.20
2023-05-18T04:51:56.414Z,7.40
2023-05-18T04:54:24.414Z,6.60
2023-05-18T04:56:51.929Z,7.30
2023-05-18T04:59:19.294Z,11.60
2023-05-18T05:01:47.020Z,14.20
2023-05-18T05:04:14.401Z,17.80
2023-05-18T05:06:41.594Z,18.00
2023-05-18T05:09:08.699Z,12.50
2023-05-18T05:11:35.774Z,25.20
2023-05-18T05:14:03.340Z,14.60
2023-05-18T05:16:31.212Z,10.30
2023-05-18T05:18:58.572Z,25.40
2023-05-18T05:21:25.973Z,18.90
2023-05-18T05:23:52.887Z,14.90
2023-05-18T05:26:20.401Z,14.70
2023-05-18T05:28:48.047Z,13.20
2023-05-18T05:31:15.937Z,12.40
2023-05-18T05:33:45.508Z,14.90
2023-05-18T05:36:13.681Z,14.40
2023-05-18T05:38:41.378Z,14.00
2023-05-18T05:41:08.714Z,13.90
2023-05-18T05:43:36.059Z,8.70
2023-05-18T05:46:03.116Z,8.50
2023-05-18T05:48:30.670Z,8.30
2023-05-18T05:50:58.022Z,12.40
2023-05-18T05:53:25.140Z,16.10
2023-05-18T05:55:53.024Z,13.60
2023-05-18T05:58:21.109Z,12.10
2023-05-18T06:00:54.904Z,11.30
2023-05-18T06:03:22.813Z,13.20
2023-05-18T06:05:50.328Z,12.70
2023-05-18T06:08:19.730Z,11.90
2023-05-18T06:10:48.015Z,18.00
2023-05-18T06:13:16.075Z,11.60
2023-05-18T06:15:48.269Z,20.00
2023-05-18T06:18:15.440Z,10.80
2023-05-18T06:20:42.649Z,19.30
2023-05-18T06:23:10.311Z,22.00
2023-05-18T06:25:56.198Z,20.00
2023-05-18T06:28:31.944Z,15.30
2023-05-18T06:31:21.977Z,15.30
2023-05-18T06:33:59.943Z,16.30
2023-05-18T06:36:27.091Z,20.10
2023-05-18T06:38:54.339Z,12.80
2023-05-18T06:41:22.505Z,24.20
2023-05-18T06:43:50.888Z,24.20
2023-05-18T06:46:38.518Z,23.00
2023-05-18T06:49:12.738Z,38.80
2023-05-18T06:51:40.192Z,25.90
2023-05-18T06:54:07.557Z,11.70
2023-05-18T06:56:34.925Z,20.00
2023-05-18T06:59:01.944Z,22.00
2023-05-18T07:01:29.682Z,22.50
2023-05-18T07:03:59.760Z,18.60
2023-05-18T07:06:26.874Z,34.70
2023-05-18T07:08:53.922Z,30.00
2023-05-18T07:11:21.274Z,23.20
2023-05-18T07:13:48.328Z,21.10
2023-05-18T07:16:15.629Z,20.60
2023-05-18T07:18:42.838Z,16.20
2023-05-18T07:21:10.071Z,15.90
2023-05-18T07:23:37.324Z,17.30
2023-05-18T07:26:04.475Z,19.80
2023-05-18T07:28:31.644Z,19.40
2023-05-18T07:30:58.779Z,21.80
2023-05-18T07:33:25.918Z,17.60
2023-05-18T07:35:52.893Z,17.10
2023-05-18T07:38:20.526Z,16.80
2023-05-18T07:40:47.571Z,12.90
2023-05-18T07:43:14.820Z,9.50
2023-05-18T07:45:41.986Z,10.80
2023-05-18T07:48:09.102Z,14.30
2023-05-18T07:50:36.332Z,10.10
2023-05-18T07:53:03.301Z,11.80
2023-05-18T07:55:30.651Z,8.40
2023-05-18T07:58:01.208Z,12.30
2023-05-18T08:00:28.344Z,12.70
2023-05-18T08:02:55.864Z,23.50
2023-05-18T08:05:23.569Z,9.00
2023-05-18T08:07:50.729Z,10.40
2023-05-18T08:10:17.868Z,17.30
2023-05-18T08:12:44.912Z,12.10
2023-05-18T08:16:54.085Z,12.30
2023-05-18T08:19:21.342Z,19.30
2023-05-18T08:21:48.763Z,9.60
2023-05-18T08:24:15.914Z,13.80
2023-05-18T08:26:43.089Z,14.70
2023-05-18T08:29:10.517Z,14.70
2023-05-18T08:31:38.520Z,9.50
2023-05-18T08:34:06.344Z,9.30
2023-05-18T08:36:34.447Z,12.90
2023-05-18T08:39:03.101Z,10.10
2023-05-18T08:41:31.310Z,13.80
2023-05-18T08:44:14.374Z,11.80
2023-05-18T08:46:42.835Z,10.80
2023-05-18T08:49:11.064Z,14.90
2023-05-18T08:51:38.325Z,13.90
2023-05-18T08:54:06.521Z,75.10
2023-05-18T08:56:34.754Z,9.40
2023-05-18T08:59:05.207Z,9.30
2023-05-18T09:01:33.004Z,14.30
2023-05-18T09:04:02.850Z,11.20
2023-05-18T09:06:29.906Z,16.60
2023-05-18T09:08:59.924Z,16.20
2023-05-18T09:11:28.201Z,11.50
2023-05-18T09:13:55.668Z,17.30
2023-05-18T09:16:22.813Z,13.20
2023-05-18T09:18:50.093Z,10.20
2023-05-18T09:21:17.202Z,10.70
2023-05-18T09:23:44.348Z,13.70
2023-05-18T09:26:12.906Z,21.40
2023-05-18T09:28:43.662Z,17.30
2023-05-18T09:31:14.131Z,10.90
2023-05-18T09:33:41.762Z,14.60
2023-05-18T09:36:09.623Z,13.90
2023-05-18T09:38:38.378Z,11.40
2023-05-18T09:41:10.470Z,20.20
2023-05-18T09:43:37.373Z,15.60
2023-05-18T09:46:08.462Z,12.70
2023-05-18T09:48:36.989Z,9.00
2023-05-18T09:51:07.326Z,19.70
2023-05-18T09:53:38.261Z,13.90
2023-05-18T09:56:12.200Z,15.70
2023-05-18T09:58:39.969Z,13.30
2023-05-18T10:01:07.152Z,15.60
2023-05-18T10:03:37.965Z,11.10
2023-05-18T10:06:06.901Z,18.10
2023-05-18T10:08:35.012Z,11.90
2023-05-18T10:11:02.211Z,9.20
2023-05-18T10:13:31.746Z,15.90
2023-05-18T10:16:06.048Z,16.20
2023-05-18T10:18:35.729Z,17.20
2023-05-18T10:21:04.582Z,10.00
2023-05-18T10:23:32.956Z,15.80
2023-05-18T10:26:00.142Z,11.60
2023-05-18T10:28:47.625Z,9.10
2023-05-18T10:31:16.139Z,17.60
2023-05-18T10:33:43.264Z,9.60
2023-05-18T10:36:11.141Z,11.20
2023-05-18T10:38:43.686Z,11.60
2023-05-18T10:41:10.751Z,11.90
2023-05-18T10:43:37.900Z,17.10
2023-05-18T10:46:05.739Z,10.00
2023-05-18T10:48:32.839Z,12.80
2023-05-18T10:50:59.823Z,13.10
2023-05-18T10:53:30.113Z,19.60
2023-05-18T10:55:57.235Z,183.20
2023-05-18T10:58:25.882Z,15.00
2023-05-18T11:01:01.792Z,13.00
2023-05-18T11:03:29.069Z,12.10
2023-05-18T11:06:06.964Z,15.40
2023-05-18T11:08:34.303Z,11.10
2023-05-18T11:11:03.369Z,14.60
2023-05-18T11:13:31.744Z,14.10
2023-05-18T11:15:59.681Z,272.40
2023-05-18T11:18:46.100Z,23.20
2023-05-18T11:21:25.760Z,12.30
2023-05-18T11:24:24.251Z,13.60
2023-05-18T11:26:56.074Z,12.50
2023-05-18T11:29:23.360Z,12.50
2023-05-18T11:31:54.807Z,15.30
2023-05-18T11:34:45.316Z,33.60
2023-05-18T11:37:14.404Z,14.20
2023-05-18T11:39:51.669Z,14.20
2023-05-18T11:42:25.504Z,18.00
2023-05-18T11:44:54.321Z,13.50
2023-05-18T11:47:21.414Z,14.60
2023-05-18T11:49:49.590Z,10.90
2023-05-18T11:52:20.220Z,12.20
2023-05-18T11:54:57.616Z,14.10
2023-05-18T11:57:26.546Z,14.10
2023-05-18T11:59:57.793Z,14.80
2023-05-18T12:02:26.907Z,13.50
2023-05-18T12:05:07.237Z,11.70
2023-05-18T12:07:35.780Z,11.60
2023-05-18T12:10:13.375Z,15.20
2023-05-18T12:12:41.238Z,12.80
2023-05-18T12:15:09.756Z,17.80
2023-05-18T12:17:44.198Z,13.70
2023-05-18T12:20:19.247Z,15.80
2023-05-18T12:22:50.447Z,9.40
2023-05-18T12:25:17.503Z,12.40
2023-05-18T12:27:45.429Z,12.30
2023-05-18T12:30:15.858Z,8.50
2023-05-18T12:32:53.697Z,9.50
2023-05-18T12:35:24.800Z,10.60
2023-05-18T12:37:51.992Z,14.20
2023-05-18T12:40:19.973Z,8.60
2023-05-18T12:43:00.380Z,12.10
2023-05-18T12:45:28.511Z,12.80
2023-05-18T12:47:56.524Z,16.20
2023-05-18T12:50:26.673Z,9.50
2023-05-18T12:52:55.058Z,12.30
2023-05-18T12:55:22.636Z,14.40
2023-05-18T12:58:04.362Z,11.80
2023-05-18T13:00:35.408Z,9.10
2023-05-18T13:03:13.628Z,14.20
2023-05-18T13:05:44.319Z,9.80
2023-05-18T13:08:16.486Z,7.40
2023-05-18T13:10:44.375Z,8.10
2023-05-18T13:13:16.382Z,8.60
2023-05-18T13:15:43.854Z,14.20
2023-05-18T13:18:12.193Z,9.70
2023-05-18T13:20:42.335Z,12.70
2023-05-18T13:23:14.352Z,12.30
2023-05-18T13:25:42.440Z,11.40
2023-05-18T13:28:12.552Z,11.20
2023-05-18T13:30:40.420Z,8.20
2023-05-18T13:33:08.878Z,16.30
2023-05-18T13:35:42.095Z,9.80
2023-05-18T13:38:13.577Z,10.70
2023-05-18T13:40:41.191Z,16.00
2023-05-18T13:43:10.889Z,12.70
2023-05-18T13:45:39.978Z,11.40
2023-05-18T13:48:10.152Z,13.30
2023-05-18T13:50:38.224Z,18.10
2023-05-18T13:53:05.345Z,13.80
2023-05-18T13:55:33.682Z,8.90
2023-05-18T13:58:01.575Z,9.70
2023-05-18T14:00:28.733Z,7.80
2023-05-18T14:02:56.899Z,7.50
2023-05-18T14:05:24.584Z,7.50
2023-05-18T14:07:54.709Z,7.10
2023-05-18T14:10:21.890Z,8.60
2023-05-18T14:12:49.285Z,15.80
2023-05-18T14:15:16.440Z,13.40
2023-05-18T14:17:44.568Z,11.40
2023-05-18T14:20:12.278Z,13.00
2023-05-18T14:22:39.400Z,10.50
2023-05-18T14:25:07.102Z,11.00
2023-05-18T14:27:34.392Z,7.50
2023-05-18T14:30:01.679Z,48.70
2023-05-18T14:32:28.641Z,27.60
2023-05-18T14:34:58.155Z,17.20
2023-05-18T14:37:25.706Z,7.50
2023-05-18T14:39:52.838Z,14.00
2023-05-18T14:42:20.049Z,10.80
2023-05-18T14:44:47.312Z,7.30
2023-05-18T14:47:14.541Z,7.90
2023-05-18T14:49:41.647Z,10.70
2023-05-18T14:52:08.581Z,13.70
2023-05-18T14:54:36.881Z,16.00
2023-05-18T14:57:04.652Z,9.50
2023-05-18T14:59:31.773Z,10.30
2023-05-18T15:01:58.943Z,12.50
2023-05-18T15:04:26.173Z,9.70
2023-05-18T15:06:53.338Z,8.90
2023-05-18T15:09:20.775Z,14.10
2023-05-18T15:11:47.714Z,12.60
2023-05-18T15:14:14.863Z,19.00
2023-05-18T15:16:42.554Z,9.30
2023-05-18T15:19:09.794Z,9.50
2023-05-18T15:21:36.838Z,22.10
2023-05-18T15:24:03.974Z,17.80
2023-05-18T15:26:31.120Z,9.90
2023-05-18T15:28:58.171Z,10.40
2023-05-18T15:31:25.343Z,12.20
2023-05-18T15:33:52.480Z,17.50
2023-05-18T15:36:21.398Z,11.20
2023-05-18T15:38:48.513Z,20.90
2023-05-18T15:41:15.561Z,21.10
2023-05-18T15:43:43.792Z,14.00
2023-05-18T15:46:11.137Z,11.90
2023-05-18T15:48:38.351Z,13.40
2023-05-18T15:51:05.996Z,14.20
2023-05-18T15:53:34.068Z,14.70
2023-05-18T15:56:02.364Z,13.10
2023-05-18T15:58:30.404Z,17.80
2023-05-18T16:00:57.612Z,108.80
2023-05-18T16:03:24.886Z,14.30
2023-05-18T16:05:52.000Z,10.30
2023-05-18T16:08:20.659Z,18.60
2023-05-18T16:10:48.207Z,13.00
2023-05-18T16:13:15.760Z,24.80
2023-05-18T16:15:43.022Z,11.30
2023-05-18T16:18:10.755Z,10.40
2023-05-18T16:20:38.641Z,14.20
2023-05-18T16:23:05.833Z,13.40
2023-05-18T16:25:32.970Z,11.30
2023-05-18T16:28:00.112Z,12.90
2023-05-18T16:30:27.349Z,13.60
2023-05-18T16:32:54.532Z,10.50
2023-05-18T16:35:21.787Z,15.60
2023-05-18T16:37:48.888Z,20.00
2023-05-18T16:40:16.134Z,17.20
2023-05-18T16:42:47.438Z,12.50
2023-05-18T16:45:15.084Z,16.20
2023-05-18T16:47:42.344Z,88.20
2023-05-18T16:50:10.370Z,117.40
2023-05-18T16:52:37.407Z,226.40
2023-05-18T16:55:04.973Z,183.90
2023-05-18T16:57:33.975Z,139.00
2023-05-18T17:00:02.774Z,155.50
2023-05-18T17:02:30.325Z,133.70
2023-05-18T17:04:59.218Z,138.20
2023-05-18T17:07:26.343Z,108.90
2023-05-18T17:09:53.292Z,253.90
2023-05-18T17:12:20.636Z,133.90
2023-05-18T17:14:50.603Z,121.40
2023-05-18T17:17:19.248Z,105.20
2023-05-18T17:19:46.222Z,96.70
2023-05-18T17:22:13.215Z,88.40
2023-05-18T17:24:40.279Z,77.30
2023-05-18T17:27:07.281Z,86.00
2023-05-18T17:29:34.468Z,71.10
2023-05-18T17:32:01.852Z,75.50
2023-05-18T17:34:30.661Z,51.20
2023-05-18T17:36:58.767Z,51.90
2023-05-18T17:39:26.753Z,53.30
2023-05-18T17:41:54.494Z,45.00
2023-05-18T17:44:21.873Z,65.00
2023-05-18T17:46:49.221Z,47.20
2023-05-18T17:49:16.273Z,53.70
2023-05-18T17:51:43.570Z,69.50
2023-05-18T17:54:10.979Z,49.70
2023-05-18T17:56:38.229Z,36.40
2023-05-18T17:59:05.897Z,38.80
2023-05-18T18:01:33.665Z,32.70
2023-05-18T18:04:01.217Z,28.40
2023-05-18T18:06:28.264Z,42.70
2023-05-18T18:09:00.217Z,47.40
2023-05-18T18:11:27.779Z,44.40
2023-05-18T18:13:54.932Z,37.00
2023-05-18T18:16:22.475Z,49.10
2023-05-18T18:18:50.830Z,42.40
2023-05-18T18:21:18.133Z,42.30
2023-05-18T18:23:45.147Z,29.70
2023-05-18T18:26:12.207Z,32.90
2023-05-18T18:28:39.254Z,44.70
2023-05-18T18:31:06.252Z,36.70
2023-05-18T18:33:33.679Z,36.90
2023-05-18T18:36:00.946Z,38.80
2023-05-18T18:38:29.068Z,29.60
2023-05-18T18:41:04.452Z,27.50
2023-05-18T18:43:31.987Z,32.00
2023-05-18T18:45:59.549Z,26.10
2023-05-18T18:48:26.984Z,31.80
2023-05-18T18:50:54.245Z,42.40
2023-05-18T18:53:21.529Z,20.10
2023-05-18T18:55:48.760Z,26.90
2023-05-18T18:58:16.310Z,34.00
2023-05-18T19:00:43.364Z,26.90
2023-05-18T19:03:10.752Z,27.80
2023-05-18T19:05:38.393Z,25.40
2023-05-18T19:08:06.035Z,31.70
2023-05-18T19:10:34.613Z,33.50
2023-05-18T19:13:05.957Z,31.80
2023-05-18T19:15:34.105Z,96.80
2023-05-18T19:18:01.497Z,90.10
2023-05-18T19:20:28.841Z,73.00
2023-05-18T19:22:56.139Z,50.00
2023-05-18T19:25:26.585Z,63.40
2023-05-18T19:27:54.246Z,41.90
2023-05-18T19:30:33.933Z,27.90
2023-05-18T19:33:01.488Z,25.10
2023-05-18T19:35:29.230Z,24.90
2023-05-18T19:37:56.544Z,23.60
2023-05-18T19:40:27.346Z,30.40
2023-05-18T19:42:56.501Z,27.50
2023-05-18T19:45:24.311Z,22.90
2023-05-18T19:47:53.635Z,31.30
2023-05-18T19:50:21.410Z,24.80
2023-05-18T19:52:50.357Z,20.00
2023-05-18T19:55:18.049Z,19.60
2023-05-18T19:57:45.201Z,22.80
2023-05-18T20:00:12.965Z,21.40
2023-05-18T20:02:40.492Z,25.00
2023-05-18T20:05:08.598Z,20.20
2023-05-18T20:07:36.109Z,24.30
2023-05-18T20:10:03.307Z,18.40
2023-05-18T20:12:32.186Z,17.20
2023-05-18T20:14:59.954Z,28.10
2023-05-18T20:17:27.364Z,23.70
2023-05-18T20:19:54.557Z,25.20
2023-05-18T20:22:21.822Z,26.40
2023-05-18T20:24:49.983Z,37.20
2023-05-18T20:27:17.057Z,23.00
2023-05-18T20:29:44.174Z,23.30
2023-05-18T20:35:01.417Z,29.00
2023-05-18T20:37:28.867Z,23.20
2023-05-18T20:39:58.041Z,38.60
2023-05-18T20:42:30.339Z,20.90
2023-05-18T20:44:59.357Z,22.30
2023-05-18T20:47:26.534Z,31.30
2023-05-18T20:49:53.733Z,24.70
2023-05-18T20:52:20.872Z,21.10
2023-05-18T20:54:48.535Z,25.70
2023-05-18T20:57:15.765Z,27.40
2023-05-18T20:59:42.953Z,22.00
2023-05-18T21:02:09.989Z,24.30
2023-05-18T21:04:37.133Z,19.90
2023-05-18T21:07:05.727Z,21.70
2023-05-18T21:09:34.234Z,21.70
2023-05-18T21:12:01.555Z,19.40
2023-05-18T21:14:29.045Z,25.20
2023-05-18T21:16:56.462Z,24.00
2023-05-18T21:19:24.055Z,20.90
2023-05-18T21:21:51.379Z,23.50
2023-05-18T21:24:18.900Z,18.00
2023-05-18T21:26:46.296Z,28.20
2023-05-18T21:29:13.366Z,24.70
2023-05-18T21:31:40.695Z,20.00
2023-05-18T21:34:08.769Z,20.90
2023-05-18T21:36:35.728Z,24.40
2023-05-18T21:39:06.240Z,23.50
2023-05-18T21:41:35.475Z,22.50
2023-05-18T21:44:02.377Z,19.60
2023-05-18T21:46:29.411Z,18.20
2023-05-18T21:48:57.192Z,22.10
2023-05-18T21:51:25.476Z,15.20
2023-05-18T21:53:52.822Z,21.10
2023-05-18T21:56:20.110Z,15.50
2023-05-18T21:58:47.227Z,19.10
2023-05-18T22:01:19.939Z,21.40
2023-05-18T22:03:51.042Z,24.80
2023-05-18T22:06:21.068Z,21.30
2023-05-18T22:08:48.204Z,20.30
2023-05-18T22:11:15.692Z,21.00
2023-05-18T22:13:42.702Z,23.40
2023-05-18T22:16:09.656Z,15.90
2023-05-18T22:18:36.646Z,19.70
2023-05-18T22:21:04.313Z,25.70
2023-05-18T22:23:31.412Z,21.50
2023-05-18T22:25:58.461Z,21.40
2023-05-18T22:28:25.605Z,18.60
2023-05-18T22:30:52.748Z,22.40
2023-05-18T22:33:21.359Z,22.00
2023-05-18T22:35:48.814Z,15.50
2023-05-18T22:38:16.954Z,15.90
2023-05-18T22:40:45.238Z,22.20
2023-05-18T22:43:12.284Z,18.50
2023-05-18T22:45:39.325Z,14.90
2023-05-18T22:48:06.604Z,20.80
2023-05-18T22:50:34.888Z,13.30
2023-05-18T22:53:02.678Z,16.80
2023-05-18T22:55:30.418Z,15.40
2023-05-18T22:57:57.535Z,23.70
2023-05-18T23:00:24.676Z,20.90
2023-05-18T23:02:53.252Z,15.00
2023-05-18T23:05:20.594Z,22.10
2023-05-18T23:07:48.381Z,15.80
2023-05-18T23:10:15.940Z,16.80
2023-05-18T23:12:45.675Z,15.30
2023-05-18T23:15:12.634Z,23.50
2023-05-18T23:17:39.761Z,23.60
2023-05-18T23:20:08.392Z,20.90
2023-05-18T23:22:35.607Z,36.80
2023-05-18T23:25:04.701Z,26.80
2023-05-18T23:27:32.337Z,39.40
2023-05-18T23:29:59.400Z,17.00
2023-05-18T23:32:27.035Z,18.90
2023-05-18T23:34:56.431Z,29.60
2023-05-18T23:37:23.894Z,15.70
2023-05-18T23:39:52.131Z,16.70
2023-05-18T23:42:19.673Z,17.20
2023-05-18T23:44:49.423Z,14.10
2023-05-18T23:47:17.107Z,15.70
2023-05-18T23:49:45.551Z,16.20
2023-05-18T23:52:13.855Z,19.00
2023-05-18T23:54:42.130Z,19.30
2023-05-18T23:57:10.107Z,21.80
2023-05-18T23:59:38.273Z,20.40
